sensor_id;sensor_type;location;lat;lon;timestamp;temperature;humidity
40151;DHT22;25866;52.420;10.640;2023-04-24T00:00:20;13.20;99.90
40151;DHT22;25866;52.420;10.640;2023-04-24T00:02:46;13.30;99.90
40151;DHT22;25866;52.420;10.640;2023-04-24T00:05:15;13.30;99.90
40151;DHT22;25866;52.420;10.640;2023-04-24T00:07:43;13.30;99.90
40151;DHT22;25866;52.420;10.640;2023-04-24T00:10:11;13.30;99.90
40151;DHT22;25866;52.420;10.640;2023-04-24T00:12:37;13.30;99.90
40151;DHT22;25866;52.420;10.640;2023-04-24T00:15:05;13.40;99.90
40151;DHT22;25866;52.420;10.640;2023-04-24T00:17:31;13.40;99.90
40151;DHT22;25866;52.420;10.640;2023-04-24T00:19:56;13.40;99.90
40151;DHT22;25866;52.420;10.640;2023-04-24T00:22:26;13.40;99.90
40151;DHT22;25866;52.420;10.640;2023-04-24T00:24:55;13.40;99.90
40151;DHT22;25866;52.420;10.640;2023-04-24T00:27:21;13.40;99.90
40151;DHT22;25866;52.420;10.640;2023-04-24T00:29:46;13.30;99.90
40151;DHT22;25866;52.420;10.640;2023-04-24T00:32:13;13.30;99.90
40151;DHT22;25866;52.420;10.640;2023-04-24T00:34:39;13.20;99.90
40151;DHT22;25866;52.420;10.640;2023-04-24T00:37:05;13.20;99.90
40151;DHT22;25866;52.420;10.640;2023-04-24T00:39:31;13.10;99.90
40151;DHT22;25866;52.420;10.640;2023-04-24T00:41:57;13.10;99.90
40151;DHT22;25866;52.420;10.640;2023-04-24T00:44:23;13.10;99.90
40151;DHT22;25866;52.420;10.640;2023-04-24T00:46:50;13.10;99.90
40151;DHT22;25866;52.420;10.640;2023-04-24T00:49:20;13.00;99.90
40151;DHT22;25866;52.420;10.640;2023-04-24T00:51:46;13.00;99.90
40151;DHT22;25866;52.420;10.640;2023-04-24T00:54:15;12.90;99.90
40151;DHT22;25866;52.420;10.640;2023-04-24T00:56:42;12.80;99.90
40151;DHT22;25866;52.420;10.640;2023-04-24T00:59:09;12.80;99.90
40151;DHT22;25866;52.420;10.640;2023-04-24T01:01:35;12.70;99.90
40151;DHT22;25866;52.420;10.640;2023-04-24T01:04:02;12.60;99.90
40151;DHT22;25866;52.420;10.640;2023-04-24T01:06:28;12.60;99.90
40151;DHT22;25866;52.420;10.640;2023-04-24T01:08:58;12.50;99.90
40151;DHT22;25866;52.420;10.640;2023-04-24T01:11:25;12.50;99.90
40151;DHT22;25866;52.420;10.640;2023-04-24T01:13:51;12.50;99.90
40151;DHT22;25866;52.420;10.640;2023-04-24T01:16:17;12.50;99.90
40151;DHT22;25866;52.420;10.640;2023-04-24T01:18:46;12.40;99.90
40151;DHT22;25866;52.420;10.640;2023-04-24T01:21:14;12.40;99.90
40151;DHT22;25866;52.420;10.640;2023-04-24T01:23:45;12.50;99.90
40151;DHT22;25866;52.420;10.640;2023-04-24T01:26:12;12.50;99.90
40151;DHT22;25866;52.420;10.640;2023-04-24T01:28:39;12.40;99.90
40151;DHT22;25866;52.420;10.640;2023-04-24T01:31:05;12.50;99.90
40151;DHT22;25866;52.420;10.640;2023-04-24T01:33:31;12.50;99.90
40151;DHT22;25866;52.420;10.640;2023-04-24T01:35:57;12.50;99.90
40151;DHT22;25866;52.420;10.640;2023-04-24T01:38:23;12.50;99.90
40151;DHT22;25866;52.420;10.640;2023-04-24T01:40:49;12.40;99.90
40151;DHT22;25866;52.420;10.640;2023-04-24T01:43:15;12.50;99.90
40151;DHT22;25866;52.420;10.640;2023-04-24T01:45:41;12.50;99.90
40151;DHT22;25866;52.420;10.640;2023-04-24T01:48:07;12.50;99.90
40151;DHT22;25866;52.420;10.640;2023-04-24T01:50:33;12.40;99.90
40151;DHT22;25866;52.420;10.640;2023-04-24T01:52:59;12.40;99.90
40151;DHT22;25866;52.420;10.640;2023-04-24T01:55:25;12.30;99.90
40151;DHT22;25866;52.420;10.640;2023-04-24T01:57:53;12.30;99.90
40151;DHT22;25866;52.420;10.640;2023-04-24T02:00:21;12.30;99.90
40151;DHT22;25866;52.420;10.640;2023-04-24T02:02:47;12.30;99.90
40151;DHT22;25866;52.420;10.640;2023-04-24T02:05:13;12.20;99.90
40151;DHT22;25866;52.420;10.640;2023-04-24T02:07:38;12.20;99.90
40151;DHT22;25866;52.420;10.640;2023-04-24T02:10:05;12.10;99.90
40151;DHT22;25866;52.420;10.640;2023-04-24T02:12:31;12.10;99.90
40151;DHT22;25866;52.420;10.640;2023-04-24T02:14:57;12.10;99.90
40151;DHT22;25866;52.420;10.640;2023-04-24T02:17:23;12.10;99.90
40151;DHT22;25866;52.420;10.640;2023-04-24T02:19:49;12.10;99.90
40151;DHT22;25866;52.420;10.640;2023-04-24T02:22:14;12.00;99.90
40151;DHT22;25866;52.420;10.640;2023-04-24T02:24:41;12.10;99.90
40151;DHT22;25866;52.420;10.640;2023-04-24T02:27:06;12.00;99.90
40151;DHT22;25866;52.420;10.640;2023-04-24T02:29:32;11.90;99.90
40151;DHT22;25866;52.420;10.640;2023-04-24T02:31:58;11.90;99.90
40151;DHT22;25866;52.420;10.640;2023-04-24T02:34:24;11.90;99.90
40151;DHT22;25866;52.420;10.640;2023-04-24T02:36:50;11.90;99.90
40151;DHT22;25866;52.420;10.640;2023-04-24T02:39:16;11.90;99.90
40151;DHT22;25866;52.420;10.640;2023-04-24T02:41:42;11.80;99.90
40151;DHT22;25866;52.420;10.640;2023-04-24T02:44:08;11.80;99.90
40151;DHT22;25866;52.420;10.640;2023-04-24T02:46:35;11.80;99.90
40151;DHT22;25866;52.420;10.640;2023-04-24T02:49:01;11.70;99.90
40151;DHT22;25866;52.420;10.640;2023-04-24T02:51:26;11.70;99.90
40151;DHT22;25866;52.420;10.640;2023-04-24T02:53:52;11.60;99.90
40151;DHT22;25866;52.420;10.640;2023-04-24T02:56:18;11.60;99.90
40151;DHT22;25866;52.420;10.640;2023-04-24T02:58:44;11.60;99.90
40151;DHT22;25866;52.420;10.640;2023-04-24T03:01:09;11.60;99.90
40151;DHT22;25866;52.420;10.640;2023-04-24T03:03:36;11.50;99.90
40151;DHT22;25866;52.420;10.640;2023-04-24T03:06:02;11.50;99.90
40151;DHT22;25866;52.420;10.640;2023-04-24T03:08:27;11.50;99.90
40151;DHT22;25866;52.420;10.640;2023-04-24T03:10:53;11.50;99.90
40151;DHT22;25866;52.420;10.640;2023-04-24T03:13:19;11.50;99.90
40151;DHT22;25866;52.420;10.640;2023-04-24T03:15:45;11.40;99.90
40151;DHT22;25866;52.420;10.640;2023-04-24T03:18:12;11.40;99.90
40151;DHT22;25866;52.420;10.640;2023-04-24T03:20:37;11.40;99.90
40151;DHT22;25866;52.420;10.640;2023-04-24T03:23:03;11.30;99.90
40151;DHT22;25866;52.420;10.640;2023-04-24T03:25:29;11.30;99.90
40151;DHT22;25866;52.420;10.640;2023-04-24T03:27:55;11.20;99.90
40151;DHT22;25866;52.420;10.640;2023-04-24T03:30:21;11.20;99.90
40151;DHT22;25866;52.420;10.640;2023-04-24T03:32:46;11.10;99.90
40151;DHT22;25866;52.420;10.640;2023-04-24T03:35:12;11.10;99.90
40151;DHT22;25866;52.420;10.640;2023-04-24T03:37:38;11.00;99.90
40151;DHT22;25866;52.420;10.640;2023-04-24T03:40:04;11.00;99.90
40151;DHT22;25866;52.420;10.640;2023-04-24T03:42:31;11.10;99.90
40151;DHT22;25866;52.420;10.640;2023-04-24T03:44:57;11.10;99.90
40151;DHT22;25866;52.420;10.640;2023-04-24T03:47:22;11.00;99.90
40151;DHT22;25866;52.420;10.640;2023-04-24T03:49:48;11.00;99.90
40151;DHT22;25866;52.420;10.640;2023-04-24T03:52:14;11.00;99.90
40151;DHT22;25866;52.420;10.640;2023-04-24T03:54:39;11.00;99.90
40151;DHT22;25866;52.420;10.640;2023-04-24T03:57:05;11.00;99.90
40151;DHT22;25866;52.420;10.640;2023-04-24T03:59:31;10.90;99.90
40151;DHT22;25866;52.420;10.640;2023-04-24T04:01:57;10.90;99.90
40151;DHT22;25866;52.420;10.640;2023-04-24T04:04:22;10.90;99.90
40151;DHT22;25866;52.420;10.640;2023-04-24T04:06:48;10.90;99.90
40151;DHT22;25866;52.420;10.640;2023-04-24T04:09:14;10.90;99.90
40151;DHT22;25866;52.420;10.640;2023-04-24T04:11:42;10.90;99.90
40151;DHT22;25866;52.420;10.640;2023-04-24T04:14:08;10.90;99.90
40151;DHT22;25866;52.420;10.640;2023-04-24T04:16:33;11.00;99.90
40151;DHT22;25866;52.420;10.640;2023-04-24T04:19:01;10.90;99.90
40151;DHT22;25866;52.420;10.640;2023-04-24T04:21:28;10.90;99.90
40151;DHT22;25866;52.420;10.640;2023-04-24T04:23:54;10.80;99.90
40151;DHT22;25866;52.420;10.640;2023-04-24T04:26:20;10.80;99.90
40151;DHT22;25866;52.420;10.640;2023-04-24T04:28:46;10.80;99.90
40151;DHT22;25866;52.420;10.640;2023-04-24T04:31:13;10.80;99.90
40151;DHT22;25866;52.420;10.640;2023-04-24T04:33:39;10.80;99.90
40151;DHT22;25866;52.420;10.640;2023-04-24T04:36:05;10.80;99.90
40151;DHT22;25866;52.420;10.640;2023-04-24T04:38:31;10.80;99.90
40151;DHT22;25866;52.420;10.640;2023-04-24T04:40:58;10.90;99.90
40151;DHT22;25866;52.420;10.640;2023-04-24T04:43:24;10.90;99.90
40151;DHT22;25866;52.420;10.640;2023-04-24T04:45:51;10.80;99.90
40151;DHT22;25866;52.420;10.640;2023-04-24T04:48:17;10.80;99.90
40151;DHT22;25866;52.420;10.640;2023-04-24T04:50:45;10.80;99.90
40151;DHT22;25866;52.420;10.640;2023-04-24T04:53:11;10.80;99.90
40151;DHT22;25866;52.420;10.640;2023-04-24T04:55:37;10.80;99.90
40151;DHT22;25866;52.420;10.640;2023-04-24T04:58:03;10.70;99.90
40151;DHT22;25866;52.420;10.640;2023-04-24T05:00:29;10.70;99.90
40151;DHT22;25866;52.420;10.640;2023-04-24T05:03:00;10.70;99.90
40151;DHT22;25866;52.420;10.640;2023-04-24T05:05:25;10.70;99.90
40151;DHT22;25866;52.420;10.640;2023-04-24T05:07:51;10.60;99.90
40151;DHT22;25866;52.420;10.640;2023-04-24T05:10:17;10.60;99.90
40151;DHT22;25866;52.420;10.640;2023-04-24T05:12:43;10.60;99.90
40151;DHT22;25866;52.420;10.640;2023-04-24T05:15:09;10.70;99.90
40151;DHT22;25866;52.420;10.640;2023-04-24T05:17:40;10.70;99.90
40151;DHT22;25866;52.420;10.640;2023-04-24T05:20:07;10.80;99.90
40151;DHT22;25866;52.420;10.640;2023-04-24T05:22:32;10.90;99.90
40151;DHT22;25866;52.420;10.640;2023-04-24T05:24:58;10.90;99.90
40151;DHT22;25866;52.420;10.640;2023-04-24T05:27:24;10.90;99.90
40151;DHT22;25866;52.420;10.640;2023-04-24T05:29:50;11.00;99.90
40151;DHT22;25866;52.420;10.640;2023-04-24T05:32:16;11.00;99.90
40151;DHT22;25866;52.420;10.640;2023-04-24T05:34:42;11.10;99.90
40151;DHT22;25866;52.420;10.640;2023-04-24T05:37:08;11.10;99.90
40151;DHT22;25866;52.420;10.640;2023-04-24T05:39:36;11.10;99.90
40151;DHT22;25866;52.420;10.640;2023-04-24T05:42:05;11.10;99.90
40151;DHT22;25866;52.420;10.640;2023-04-24T05:44:30;11.20;99.90
40151;DHT22;25866;52.420;10.640;2023-04-24T05:46:56;11.20;99.90
40151;DHT22;25866;52.420;10.640;2023-04-24T05:49:22;11.30;99.90
40151;DHT22;25866;52.420;10.640;2023-04-24T05:51:48;11.30;99.90
40151;DHT22;25866;52.420;10.640;2023-04-24T05:54:14;11.30;99.90
40151;DHT22;25866;52.420;10.640;2023-04-24T05:56:40;11.30;99.90
40151;DHT22;25866;52.420;10.640;2023-04-24T05:59:06;11.40;99.90
40151;DHT22;25866;52.420;10.640;2023-04-24T06:01:33;11.40;99.90
40151;DHT22;25866;52.420;10.640;2023-04-24T06:03:58;11.40;99.90
40151;DHT22;25866;52.420;10.640;2023-04-24T06:06:24;11.50;99.90
40151;DHT22;25866;52.420;10.640;2023-04-24T06:08:51;11.60;99.90
40151;DHT22;25866;52.420;10.640;2023-04-24T06:11:17;11.60;99.90
40151;DHT22;25866;52.420;10.640;2023-04-24T06:13:43;11.80;99.90
40151;DHT22;25866;52.420;10.640;2023-04-24T06:16:08;11.80;99.90
40151;DHT22;25866;52.420;10.640;2023-04-24T06:18:34;11.80;99.90
40151;DHT22;25866;52.420;10.640;2023-04-24T06:21:00;11.90;99.90
40151;DHT22;25866;52.420;10.640;2023-04-24T06:23:26;11.90;99.90
40151;DHT22;25866;52.420;10.640;2023-04-24T06:25:52;11.90;99.90
40151;DHT22;25866;52.420;10.640;2023-04-24T06:28:17;12.00;99.90
40151;DHT22;25866;52.420;10.640;2023-04-24T06:30:43;11.90;99.90
40151;DHT22;25866;52.420;10.640;2023-04-24T06:33:09;11.90;99.90
40151;DHT22;25866;52.420;10.640;2023-04-24T06:35:36;11.90;99.90
40151;DHT22;25866;52.420;10.640;2023-04-24T06:38:02;11.90;99.90
40151;DHT22;25866;52.420;10.640;2023-04-24T06:40:27;11.90;99.90
40151;DHT22;25866;52.420;10.640;2023-04-24T06:42:53;12.00;99.90
40151;DHT22;25866;52.420;10.640;2023-04-24T06:45:19;12.00;99.90
40151;DHT22;25866;52.420;10.640;2023-04-24T06:47:44;12.10;99.90
40151;DHT22;25866;52.420;10.640;2023-04-24T06:50:10;12.10;99.90
40151;DHT22;25866;52.420;10.640;2023-04-24T06:52:37;12.20;99.90
40151;DHT22;25866;52.420;10.640;2023-04-24T06:55:03;12.20;99.90
40151;DHT22;25866;52.420;10.640;2023-04-24T06:57:30;12.30;99.90
40151;DHT22;25866;52.420;10.640;2023-04-24T06:59:56;12.30;99.90
40151;DHT22;25866;52.420;10.640;2023-04-24T07:02:22;12.40;99.90
40151;DHT22;25866;52.420;10.640;2023-04-24T07:04:47;12.30;99.90
40151;DHT22;25866;52.420;10.640;2023-04-24T07:07:13;12.30;99.90
40151;DHT22;25866;52.420;10.640;2023-04-24T07:09:40;12.40;99.90
40151;DHT22;25866;52.420;10.640;2023-04-24T07:12:09;12.40;99.90
40151;DHT22;25866;52.420;10.640;2023-04-24T07:14:39;12.40;99.90
40151;DHT22;25866;52.420;10.640;2023-04-24T07:17:05;12.50;99.90
40151;DHT22;25866;52.420;10.640;2023-04-24T07:19:35;12.50;99.90
40151;DHT22;25866;52.420;10.640;2023-04-24T07:22:01;12.50;99.90
40151;DHT22;25866;52.420;10.640;2023-04-24T07:24:28;12.70;99.90
40151;DHT22;25866;52.420;10.640;2023-04-24T07:26:54;12.80;99.90
40151;DHT22;25866;52.420;10.640;2023-04-24T07:29:20;12.90;99.90
40151;DHT22;25866;52.420;10.640;2023-04-24T07:31:46;13.00;99.90
40151;DHT22;25866;52.420;10.640;2023-04-24T07:34:12;13.10;99.90
40151;DHT22;25866;52.420;10.640;2023-04-24T07:36:38;13.00;99.90
40151;DHT22;25866;52.420;10.640;2023-04-24T07:39:05;13.10;99.90
40151;DHT22;25866;52.420;10.640;2023-04-24T07:41:31;13.10;99.90
40151;DHT22;25866;52.420;10.640;2023-04-24T07:43:57;13.30;99.90
40151;DHT22;25866;52.420;10.640;2023-04-24T07:46:24;13.40;99.90
40151;DHT22;25866;52.420;10.640;2023-04-24T07:48:50;13.40;99.90
40151;DHT22;25866;52.420;10.640;2023-04-24T07:51:16;13.00;99.90
40151;DHT22;25866;52.420;10.640;2023-04-24T07:53:42;12.80;99.90
40151;DHT22;25866;52.420;10.640;2023-04-24T07:56:08;12.60;99.90
40151;DHT22;25866;52.420;10.640;2023-04-24T07:58:34;12.60;99.90
40151;DHT22;25866;52.420;10.640;2023-04-24T08:01:00;12.50;99.90
40151;DHT22;25866;52.420;10.640;2023-04-24T08:03:26;12.50;99.90
40151;DHT22;25866;52.420;10.640;2023-04-24T08:05:52;12.40;99.90
40151;DHT22;25866;52.420;10.640;2023-04-24T08:08:19;12.30;99.90
40151;DHT22;25866;52.420;10.640;2023-04-24T08:10:45;12.10;99.90
40151;DHT22;25866;52.420;10.640;2023-04-24T08:13:13;12.00;99.90
40151;DHT22;25866;52.420;10.640;2023-04-24T08:15:39;12.00;99.90
40151;DHT22;25866;52.420;10.640;2023-04-24T08:18:04;11.90;99.90
40151;DHT22;25866;52.420;10.640;2023-04-24T08:20:30;11.70;99.90
40151;DHT22;25866;52.420;10.640;2023-04-24T08:22:58;11.60;99.90
40151;DHT22;25866;52.420;10.640;2023-04-24T08:25:24;11.60;99.90
40151;DHT22;25866;52.420;10.640;2023-04-24T08:27:50;11.60;99.90
40151;DHT22;25866;52.420;10.640;2023-04-24T08:30:17;11.60;99.90
40151;DHT22;25866;52.420;10.640;2023-04-24T08:32:43;11.70;99.90
40151;DHT22;25866;52.420;10.640;2023-04-24T08:35:08;11.80;99.90
40151;DHT22;25866;52.420;10.640;2023-04-24T08:37:35;11.80;99.90
40151;DHT22;25866;52.420;10.640;2023-04-24T08:40:05;11.90;99.90
40151;DHT22;25866;52.420;10.640;2023-04-24T08:42:32;12.00;99.90
40151;DHT22;25866;52.420;10.640;2023-04-24T08:44:59;12.10;99.90
40151;DHT22;25866;52.420;10.640;2023-04-24T08:47:26;12.20;99.90
40151;DHT22;25866;52.420;10.640;2023-04-24T08:49:54;12.20;99.90
40151;DHT22;25866;52.420;10.640;2023-04-24T08:52:21;12.30;99.90
40151;DHT22;25866;52.420;10.640;2023-04-24T08:54:47;12.40;99.90
40151;DHT22;25866;52.420;10.640;2023-04-24T08:57:14;12.60;99.90
40151;DHT22;25866;52.420;10.640;2023-04-24T08:59:40;12.80;99.90
40151;DHT22;25866;52.420;10.640;2023-04-24T09:02:10;13.00;99.90
40151;DHT22;25866;52.420;10.640;2023-04-24T09:04:37;13.10;99.90
40151;DHT22;25866;52.420;10.640;2023-04-24T09:07:04;13.30;99.90
40151;DHT22;25866;52.420;10.640;2023-04-24T09:09:32;13.60;99.90
40151;DHT22;25866;52.420;10.640;2023-04-24T09:11:58;13.90;99.90
40151;DHT22;25866;52.420;10.640;2023-04-24T09:14:26;14.10;99.90
40151;DHT22;25866;52.420;10.640;2023-04-24T09:16:53;14.30;99.90
40151;DHT22;25866;52.420;10.640;2023-04-24T09:19:19;14.40;99.90
40151;DHT22;25866;52.420;10.640;2023-04-24T09:21:47;14.60;99.90
40151;DHT22;25866;52.420;10.640;2023-04-24T09:24:17;14.90;99.90
40151;DHT22;25866;52.420;10.640;2023-04-24T09:26:45;15.20;99.90
40151;DHT22;25866;52.420;10.640;2023-04-24T09:29:16;15.30;99.90
40151;DHT22;25866;52.420;10.640;2023-04-24T09:31:43;15.20;99.90
40151;DHT22;25866;52.420;10.640;2023-04-24T09:34:09;15.00;99.90
40151;DHT22;25866;52.420;10.640;2023-04-24T09:36:36;15.10;99.90
40151;DHT22;25866;52.420;10.640;2023-04-24T09:39:05;15.20;99.90
40151;DHT22;25866;52.420;10.640;2023-04-24T09:41:32;15.30;99.90
40151;DHT22;25866;52.420;10.640;2023-04-24T09:44:14;15.30;99.90
40151;DHT22;25866;52.420;10.640;2023-04-24T09:46:42;15.40;99.90
40151;DHT22;25866;52.420;10.640;2023-04-24T09:49:22;15.50;99.90
40151;DHT22;25866;52.420;10.640;2023-04-24T09:51:48;15.50;99.90
40151;DHT22;25866;52.420;10.640;2023-04-24T09:54:19;15.30;99.90
40151;DHT22;25866;52.420;10.640;2023-04-24T09:56:47;14.70;99.90
40151;DHT22;25866;52.420;10.640;2023-04-24T09:59:15;14.40;99.90
40151;DHT22;25866;52.420;10.640;2023-04-24T10:01:41;14.60;99.90
40151;DHT22;25866;52.420;10.640;2023-04-24T10:04:25;14.60;99.90
40151;DHT22;25866;52.420;10.640;2023-04-24T10:06:53;14.60;99.90
40151;DHT22;25866;52.420;10.640;2023-04-24T10:09:21;14.30;99.90
40151;DHT22;25866;52.420;10.640;2023-04-24T10:11:49;14.10;99.90
40151;DHT22;25866;52.420;10.640;2023-04-24T10:14:19;13.90;99.90
40151;DHT22;25866;52.420;10.640;2023-04-24T10:16:46;13.90;99.90
40151;DHT22;25866;52.420;10.640;2023-04-24T10:19:14;14.00;99.90
40151;DHT22;25866;52.420;10.640;2023-04-24T10:21:41;14.10;99.90
40151;DHT22;25866;52.420;10.640;2023-04-24T10:24:09;14.00;99.90
40151;DHT22;25866;52.420;10.640;2023-04-24T10:26:35;14.00;99.90
40151;DHT22;25866;52.420;10.640;2023-04-24T10:29:05;13.80;99.90
40151;DHT22;25866;52.420;10.640;2023-04-24T10:31:36;14.00;99.90
40151;DHT22;25866;52.420;10.640;2023-04-24T10:34:02;14.10;99.90
40151;DHT22;25866;52.420;10.640;2023-04-24T10:36:30;14.00;99.90
40151;DHT22;25866;52.420;10.640;2023-04-24T10:38:59;13.90;99.90
40151;DHT22;25866;52.420;10.640;2023-04-24T10:41:26;13.70;99.90
40151;DHT22;25866;52.420;10.640;2023-04-24T10:44:20;13.60;99.90
40151;DHT22;25866;52.420;10.640;2023-04-24T10:46:54;13.90;99.90
40151;DHT22;25866;52.420;10.640;2023-04-24T10:49:32;14.00;99.90
40151;DHT22;25866;52.420;10.640;2023-04-24T10:52:02;14.00;99.90
40151;DHT22;25866;52.420;10.640;2023-04-24T10:54:45;13.90;99.90
40151;DHT22;25866;52.420;10.640;2023-04-24T10:59:52;14.00;99.90
40151;DHT22;25866;52.420;10.640;2023-04-24T11:02:38;14.10;99.90
40151;DHT22;25866;52.420;10.640;2023-04-24T11:05:06;14.10;99.90
40151;DHT22;25866;52.420;10.640;2023-04-24T11:10:41;13.70;99.90
40151;DHT22;25866;52.420;10.640;2023-04-24T11:13:15;13.60;99.90
40151;DHT22;25866;52.420;10.640;2023-04-24T11:15:42;13.40;99.90
40151;DHT22;25866;52.420;10.640;2023-04-24T11:18:16;13.30;99.90
40151;DHT22;25866;52.420;10.640;2023-04-24T11:20:45;13.40;99.90
40151;DHT22;25866;52.420;10.640;2023-04-24T11:23:13;13.40;99.90
40151;DHT22;25866;52.420;10.640;2023-04-24T11:25:40;13.60;99.90
40151;DHT22;25866;52.420;10.640;2023-04-24T11:28:07;13.80;99.90
40151;DHT22;25866;52.420;10.640;2023-04-24T11:30:33;13.90;99.90
40151;DHT22;25866;52.420;10.640;2023-04-24T11:33:05;14.00;99.90
40151;DHT22;25866;52.420;10.640;2023-04-24T11:35:35;14.00;99.90
40151;DHT22;25866;52.420;10.640;2023-04-24T11:38:03;13.90;99.90
40151;DHT22;25866;52.420;10.640;2023-04-24T11:40:29;13.80;99.90
40151;DHT22;25866;52.420;10.640;2023-04-24T11:42:55;13.80;99.90
40151;DHT22;25866;52.420;10.640;2023-04-24T11:45:27;13.90;99.90
40151;DHT22;25866;52.420;10.640;2023-04-24T11:47:53;14.10;99.90
40151;DHT22;25866;52.420;10.640;2023-04-24T11:50:21;14.10;99.90
40151;DHT22;25866;52.420;10.640;2023-04-24T11:52:49;14.00;99.90
40151;DHT22;25866;52.420;10.640;2023-04-24T11:57:52;14.30;99.90
40151;DHT22;25866;52.420;10.640;2023-04-24T12:00:30;14.30;99.90
40151;DHT22;25866;52.420;10.640;2023-04-24T12:03:07;14.20;99.90
40151;DHT22;25866;52.420;10.640;2023-04-24T12:05:33;14.10;99.90
40151;DHT22;25866;52.420;10.640;2023-04-24T12:08:00;14.00;99.90
40151;DHT22;25866;52.420;10.640;2023-04-24T12:10:28;14.00;99.90
40151;DHT22;25866;52.420;10.640;2023-04-24T12:12:56;13.90;99.90
40151;DHT22;25866;52.420;10.640;2023-04-24T12:15:23;13.60;99.90
40151;DHT22;25866;52.420;10.640;2023-04-24T12:17:52;13.50;99.90
40151;DHT22;25866;52.420;10.640;2023-04-24T12:20:32;13.50;99.90
40151;DHT22;25866;52.420;10.640;2023-04-24T12:23:00;13.50;99.90
40151;DHT22;25866;52.420;10.640;2023-04-24T12:25:30;13.60;99.90
40151;DHT22;25866;52.420;10.640;2023-04-24T12:30:33;13.80;99.90
40151;DHT22;25866;52.420;10.640;2023-04-24T12:33:00;13.90;99.90
40151;DHT22;25866;52.420;10.640;2023-04-24T12:35:28;14.00;99.90
40151;DHT22;25866;52.420;10.640;2023-04-24T12:37:55;14.20;99.90
40151;DHT22;25866;52.420;10.640;2023-04-24T12:40:21;14.10;99.90
40151;DHT22;25866;52.420;10.640;2023-04-24T12:42:51;14.00;99.90
40151;DHT22;25866;52.420;10.640;2023-04-24T12:45:18;13.90;99.90
40151;DHT22;25866;52.420;10.640;2023-04-24T12:47:45;13.70;99.90
40151;DHT22;25866;52.420;10.640;2023-04-24T12:50:13;13.50;99.90
40151;DHT22;25866;52.420;10.640;2023-04-24T12:52:39;13.40;99.90
40151;DHT22;25866;52.420;10.640;2023-04-24T12:55:06;13.20;99.90
40151;DHT22;25866;52.420;10.640;2023-04-24T12:57:36;13.00;99.90
40151;DHT22;25866;52.420;10.640;2023-04-24T13:00:03;13.20;99.90
40151;DHT22;25866;52.420;10.640;2023-04-24T13:02:31;13.50;99.90
40151;DHT22;25866;52.420;10.640;2023-04-24T13:05:00;13.50;99.90
40151;DHT22;25866;52.420;10.640;2023-04-24T13:07:26;13.40;99.90
40151;DHT22;25866;52.420;10.640;2023-04-24T13:09:54;13.40;99.90
40151;DHT22;25866;52.420;10.640;2023-04-24T13:12:20;13.50;99.90
40151;DHT22;25866;52.420;10.640;2023-04-24T13:14:46;13.50;99.90
40151;DHT22;25866;52.420;10.640;2023-04-24T13:17:12;13.60;99.90
40151;DHT22;25866;52.420;10.640;2023-04-24T13:19:41;13.80;99.90
40151;DHT22;25866;52.420;10.640;2023-04-24T13:22:08;13.80;99.90
40151;DHT22;25866;52.420;10.640;2023-04-24T13:24:34;13.80;99.90
40151;DHT22;25866;52.420;10.640;2023-04-24T13:27:00;13.70;99.90
40151;DHT22;25866;52.420;10.640;2023-04-24T13:29:26;13.80;99.90
40151;DHT22;25866;52.420;10.640;2023-04-24T13:31:53;13.60;99.90
40151;DHT22;25866;52.420;10.640;2023-04-24T13:34:23;13.50;99.90
40151;DHT22;25866;52.420;10.640;2023-04-24T13:36:54;13.20;99.90
40151;DHT22;25866;52.420;10.640;2023-04-24T13:39:21;12.90;99.90
40151;DHT22;25866;52.420;10.640;2023-04-24T13:41:47;12.80;99.90
40151;DHT22;25866;52.420;10.640;2023-04-24T13:44:14;12.80;99.90
40151;DHT22;25866;52.420;10.640;2023-04-24T13:46:40;12.70;99.90
40151;DHT22;25866;52.420;10.640;2023-04-24T13:49:06;12.60;99.90
40151;DHT22;25866;52.420;10.640;2023-04-24T13:51:32;12.60;99.90
40151;DHT22;25866;52.420;10.640;2023-04-24T13:53:58;12.60;99.90
40151;DHT22;25866;52.420;10.640;2023-04-24T13:56:25;12.70;99.90
40151;DHT22;25866;52.420;10.640;2023-04-24T13:58:51;12.80;99.90
40151;DHT22;25866;52.420;10.640;2023-04-24T14:01:19;12.80;99.90
40151;DHT22;25866;52.420;10.640;2023-04-24T14:03:46;12.80;99.90
40151;DHT22;25866;52.420;10.640;2023-04-24T14:06:12;12.80;99.90
40151;DHT22;25866;52.420;10.640;2023-04-24T14:08:37;12.80;99.90
40151;DHT22;25866;52.420;10.640;2023-04-24T14:11:03;12.90;99.90
40151;DHT22;25866;52.420;10.640;2023-04-24T14:13:29;12.90;99.90
40151;DHT22;25866;52.420;10.640;2023-04-24T14:15:55;13.00;99.90
40151;DHT22;25866;52.420;10.640;2023-04-24T14:18:21;12.90;99.90
40151;DHT22;25866;52.420;10.640;2023-04-24T14:20:47;12.60;99.90
40151;DHT22;25866;52.420;10.640;2023-04-24T14:23:12;12.30;99.90
40151;DHT22;25866;52.420;10.640;2023-04-24T14:25:38;12.10;99.90
40151;DHT22;25866;52.420;10.640;2023-04-24T14:28:05;11.90;99.90
40151;DHT22;25866;52.420;10.640;2023-04-24T14:30:31;11.90;99.90
40151;DHT22;25866;52.420;10.640;2023-04-24T14:32:57;11.90;99.90
40151;DHT22;25866;52.420;10.640;2023-04-24T14:35:23;12.00;99.90
40151;DHT22;25866;52.420;10.640;2023-04-24T14:37:48;12.00;99.90
40151;DHT22;25866;52.420;10.640;2023-04-24T14:40:14;12.10;99.90
40151;DHT22;25866;52.420;10.640;2023-04-24T14:42:40;12.30;99.90
40151;DHT22;25866;52.420;10.640;2023-04-24T14:45:06;12.30;99.90
40151;DHT22;25866;52.420;10.640;2023-04-24T14:47:33;12.20;99.90
40151;DHT22;25866;52.420;10.640;2023-04-24T14:49:59;12.10;99.90
40151;DHT22;25866;52.420;10.640;2023-04-24T14:52:25;12.00;99.90
40151;DHT22;25866;52.420;10.640;2023-04-24T14:54:50;11.70;99.90
40151;DHT22;25866;52.420;10.640;2023-04-24T14:57:16;11.60;99.90
40151;DHT22;25866;52.420;10.640;2023-04-24T14:59:42;11.30;99.90
40151;DHT22;25866;52.420;10.640;2023-04-24T15:02:08;11.20;99.90
40151;DHT22;25866;52.420;10.640;2023-04-24T15:04:33;11.00;99.90
40151;DHT22;25866;52.420;10.640;2023-04-24T15:07:00;10.90;99.90
40151;DHT22;25866;52.420;10.640;2023-04-24T15:09:26;10.90;99.90
40151;DHT22;25866;52.420;10.640;2023-04-24T15:11:52;10.80;99.90
40151;DHT22;25866;52.420;10.640;2023-04-24T15:14:18;10.70;99.90
40151;DHT22;25866;52.420;10.640;2023-04-24T15:16:45;10.80;99.90
40151;DHT22;25866;52.420;10.640;2023-04-24T15:19:10;10.80;99.90
40151;DHT22;25866;52.420;10.640;2023-04-24T15:21:37;10.80;99.90
40151;DHT22;25866;52.420;10.640;2023-04-24T15:24:04;10.90;99.90